Time;durP1;ratioP1;P1;durP2;ratioP2;P2;SDS_P1;SDS_P2;PMS_P1;PMS_P2;Temp;Humidity;BMP_temperature;BMP_pressure;BME280_temperature;BME280_humidity;BME280_pressure;Samples;Min_cycle;Max_cycle;Signal;HPM_P1;HPM_P2
2023/05/20 00:00:08;;;;;;;;;22.33;21.67;;;;;-149.00;100.00;66333.84;5100669;27;45242;-75
2023/05/20 00:02:34;;;;;;;;;18.33;16.67;;;;;-149.00;100.00;66333.84;5100532;27;45235;-75
2023/05/20 00:04:59;;;;;;;;;25.50;22.00;;;;;-149.00;100.00;66333.84;5081825;27;46545;-75
2023/05/20 00:07:24;;;;;;;;;21.33;20.33;;;;;-149.00;100.00;66333.84;5099970;27;45933;-76
2023/05/20 00:09:50;;;;;;;;;19.33;19.00;;;;;-149.00;100.00;66333.84;5081942;27;45309;-75
2023/05/20 00:12:15;;;;;;;;;16.33;13.33;;;;;-149.00;100.00;66333.84;5084012;27;45323;-74
2023/05/20 00:14:41;;;;;;;;;23.33;20.67;;;;;-149.00;100.00;66333.84;5103836;27;45247;-76
2023/05/20 00:17:06;;;;;;;;;20.67;20.67;;;;;-149.00;100.00;66333.84;5103562;27;54033;-76
2023/05/20 00:19:31;;;;;;;;;22.67;20.67;;;;;-149.00;100.00;66333.84;5085115;27;45318;-75
2023/05/20 00:21:57;;;;;;;;;22.33;20.67;;;;;-149.00;100.00;66333.84;5103952;27;45326;-76
2023/05/20 00:24:23;;;;;;;;;22.00;18.00;;;;;-149.00;100.00;66333.84;5103568;27;45379;-75
2023/05/20 00:26:48;;;;;;;;;25.00;22.67;;;;;-149.00;100.00;66333.84;5103605;27;45332;-76
2023/05/20 00:29:14;;;;;;;;;23.00;21.33;;;;;-149.00;100.00;66333.84;5103547;27;45332;-76
2023/05/20 00:31:39;;;;;;;;;23.67;21.33;;;;;-149.00;100.00;66333.84;5103732;27;45373;-75
2023/05/20 00:34:05;;;;;;;;;19.33;18.33;;;;;-149.00;100.00;66333.84;5085148;27;46884;-76
2023/05/20 00:36:30;;;;;;;;;23.67;22.33;;;;;-149.00;100.00;66333.84;5084824;27;47256;-76
2023/05/20 00:38:55;;;;;;;;;28.00;26.67;;;;;-149.00;100.00;66333.84;5084581;27;45329;-75
2023/05/20 00:41:21;;;;;;;;;23.67;20.00;;;;;-149.00;100.00;66333.84;5103683;27;45236;-75
2023/05/20 00:43:46;;;;;;;;;23.00;22.00;;;;;-149.00;100.00;66333.84;5103733;27;45424;-75
2023/05/20 00:46:12;;;;;;;;;19.00;19.00;;;;;-149.00;100.00;66333.84;5103324;27;46845;-75
2023/05/20 00:48:42;;;;;;;;;22.67;22.33;;;;;-149.00;100.00;66333.84;5103523;27;45200;-76
2023/05/20 00:51:09;;;;;;;;;20.00;20.00;;;;;-149.00;100.00;66333.84;5084850;27;45373;-76
2023/05/20 00:53:35;;;;;;;;;20.00;19.33;;;;;-149.00;100.00;66333.84;5103019;27;45640;-75
2023/05/20 00:56:02;;;;;;;;;24.00;23.67;;;;;-149.00;100.00;66333.84;5084583;27;47142;-75
2023/05/20 00:58:27;;;;;;;;;18.00;17.33;;;;;-149.00;100.00;66333.84;5084784;27;45197;-76
2023/05/20 01:00:53;;;;;;;;;26.67;24.00;;;;;-149.00;100.00;66333.84;5103269;27;45270;-75
2023/05/20 01:03:19;;;;;;;;;22.00;22.00;;;;;-149.00;100.00;66333.84;5103077;27;45520;-76
2023/05/20 01:05:44;;;;;;;;;22.67;21.00;;;;;-149.00;100.00;66333.84;5102905;27;45419;-75
2023/05/20 01:08:10;;;;;;;;;18.67;18.67;;;;;-149.00;100.00;66333.84;5102929;27;45287;-76
2023/05/20 01:10:40;;;;;;;;;18.33;17.00;;;;;-149.00;100.00;66333.84;5103300;27;45327;-76
2023/05/20 01:13:11;;;;;;;;;24.00;21.67;;;;;-149.00;100.00;66333.84;5103049;27;45274;-75
2023/05/20 01:15:39;;;;;;;;;22.33;22.33;;;;;-149.00;100.00;66333.84;5084373;27;47420;-75
2023/05/20 01:18:09;;;;;;;;;20.67;20.67;;;;;-149.00;100.00;66333.84;5084418;27;45261;-76
2023/05/20 01:20:36;;;;;;;;;28.67;27.00;;;;;-149.00;100.00;66333.84;5102747;27;45248;-75
2023/05/20 01:23:03;;;;;;;;;24.33;20.33;;;;;-149.00;100.00;66333.84;5082856;27;46321;-76
2023/05/20 01:25:28;;;;;;;;;23.00;21.00;;;;;-149.00;100.00;66333.84;5102537;27;45268;-75
2023/05/20 01:27:56;;;;;;;;;20.00;19.33;;;;;-149.00;100.00;66333.84;5084131;27;45329;-75
2023/05/20 01:30:26;;;;;;;;;23.00;21.67;;;;;-149.00;100.00;66333.84;5066767;28;45295;-75
2023/05/20 01:32:56;;;;;;;;;22.00;21.33;;;;;-149.00;100.00;66333.84;5063821;28;46253;-76
2023/05/20 01:35:22;;;;;;;;;23.33;21.67;;;;;-149.00;100.00;66333.84;5081796;28;46170;-76
2023/05/20 01:37:51;;;;;;;;;20.33;20.00;;;;;-149.00;100.00;66333.84;5081856;28;45194;-75
2023/05/20 01:40:17;;;;;;;;;23.00;23.00;;;;;-149.00;100.00;66333.84;5099623;27;45292;-75
2023/05/20 01:42:44;;;;;;;;;15.00;14.67;;;;;-149.00;100.00;66333.84;5102461;27;46131;-75
2023/05/20 01:45:10;;;;;;;;;26.33;25.33;;;;;-149.00;100.00;66333.84;5102431;27;45280;-76
2023/05/20 01:47:35;;;;;;;;;20.67;19.67;;;;;-149.00;100.00;66333.84;5102362;27;45309;-75
2023/05/20 01:50:01;;;;;;;;;20.33;18.00;;;;;-149.00;100.00;66333.84;5084219;27;45301;-76
2023/05/20 01:52:26;;;;;;;;;23.67;22.00;;;;;-149.00;100.00;66333.84;5101843;27;53904;-76
2023/05/20 01:54:51;;;;;;;;;24.67;22.00;;;;;-149.00;100.00;66333.84;5102222;27;45238;-75
2023/05/20 01:57:18;;;;;;;;;22.00;21.00;;;;;-149.00;100.00;66333.84;5102473;27;45249;-76
2023/05/20 01:59:43;;;;;;;;;25.33;24.00;;;;;-149.00;100.00;66333.84;5102389;27;45132;-76
2023/05/20 02:02:09;;;;;;;;;15.33;15.33;;;;;-149.00;100.00;66333.84;5083638;27;46096;-76
2023/05/20 02:04:34;;;;;;;;;21.67;20.33;;;;;-149.00;100.00;66333.84;5083815;27;47346;-75
2023/05/20 02:07:00;;;;;;;;;20.00;19.00;;;;;-149.00;100.00;66333.84;5102166;27;45219;-75
2023/05/20 02:09:25;;;;;;;;;19.00;18.00;;;;;-149.00;100.00;66333.84;5102170;27;45368;-76
2023/05/20 02:11:50;;;;;;;;;20.00;20.00;;;;;-149.00;100.00;66333.84;5083429;27;53908;-76
2023/05/20 02:14:15;;;;;;;;;27.33;27.00;;;;;-149.00;100.00;66333.84;5083727;27;47581;-75
2023/05/20 02:16:41;;;;;;;;;20.67;18.67;;;;;-149.00;100.00;66333.84;5101816;27;50295;-75
2023/05/20 02:19:11;;;;;;;;;22.00;20.00;;;;;-149.00;100.00;66333.84;5101800;27;45562;-76
2023/05/20 02:21:37;;;;;;;;;20.67;20.00;;;;;-149.00;100.00;66333.84;5101853;27;45314;-76
2023/05/20 02:24:04;;;;;;;;;29.33;25.00;;;;;-149.00;100.00;66333.84;5083022;27;48580;-75
2023/05/20 02:26:29;;;;;;;;;24.67;21.33;;;;;-149.00;100.00;66333.84;5101838;27;45257;-76
2023/05/20 02:28:55;;;;;;;;;22.00;20.00;;;;;-149.00;100.00;66333.84;5101840;27;45226;-75
2023/05/20 02:31:21;;;;;;;;;27.00;25.33;;;;;-149.00;100.00;66333.84;5083315;27;46529;-75
2023/05/20 02:33:46;;;;;;;;;22.00;21.33;;;;;-149.00;100.00;66333.84;5101623;27;45347;-75
2023/05/20 02:36:12;;;;;;;;;24.00;20.33;;;;;-149.00;100.00;66333.84;5101007;27;45337;-75
2023/05/20 02:38:37;;;;;;;;;23.33;21.67;;;;;-149.00;100.00;66333.84;5097808;27;45267;-76
2023/05/20 02:41:03;;;;;;;;;19.67;18.33;;;;;-149.00;100.00;66333.84;5081108;28;45241;-75
2023/05/20 02:43:30;;;;;;;;;23.67;20.67;;;;;-149.00;100.00;66333.84;5081153;28;45256;-75
2023/05/20 02:45:55;;;;;;;;;20.67;19.67;;;;;-149.00;100.00;66333.84;5081166;28;45174;-76
2023/05/20 02:48:23;;;;;;;;;28.67;23.00;;;;;-149.00;100.00;66333.84;5062869;28;45474;-76
2023/05/20 02:50:49;;;;;;;;;19.67;17.67;;;;;-149.00;100.00;66333.84;5062713;28;47022;-76
2023/05/20 02:53:14;;;;;;;;;23.33;19.67;;;;;-149.00;100.00;66333.84;5080828;28;45379;-76
2023/05/20 02:55:39;;;;;;;;;23.00;20.67;;;;;-149.00;100.00;66333.84;5080935;28;45273;-75
2023/05/20 02:58:05;;;;;;;;;22.67;21.33;;;;;-149.00;100.00;66333.84;5081104;28;45901;-76
2023/05/20 03:00:30;;;;;;;;;23.67;21.67;;;;;-149.00;100.00;66333.84;5080479;28;52578;-75
2023/05/20 03:02:56;;;;;;;;;24.33;22.67;;;;;-149.00;100.00;66333.84;5080895;28;45835;-75
2023/05/20 03:05:21;;;;;;;;;17.00;16.00;;;;;-149.00;100.00;66333.84;5080716;28;45367;-75
2023/05/20 03:07:47;;;;;;;;;18.67;18.67;;;;;-149.00;100.00;66333.84;5080929;28;45339;-75
2023/05/20 03:10:13;;;;;;;;;23.33;23.00;;;;;-149.00;100.00;66333.84;5080313;28;45435;-75
2023/05/20 03:12:39;;;;;;;;;25.67;24.00;;;;;-149.00;100.00;66333.84;5062363;28;48417;-76
2023/05/20 03:15:05;;;;;;;;;23.33;22.67;;;;;-149.00;100.00;66333.84;5062418;28;45276;-75
2023/05/20 03:17:30;;;;;;;;;21.33;19.33;;;;;-149.00;100.00;66333.84;5062513;28;45390;-75
2023/05/20 03:19:56;;;;;;;;;20.67;20.33;;;;;-149.00;100.00;66333.84;5080206;28;49975;-74
2023/05/20 03:22:21;;;;;;;;;22.00;21.67;;;;;-149.00;100.00;66333.84;5062023;28;47839;-76
2023/05/20 03:24:47;;;;;;;;;23.00;19.67;;;;;-149.00;100.00;66333.84;5080285;28;52948;-75
2023/05/20 03:27:12;;;;;;;;;21.00;19.00;;;;;-149.00;100.00;66333.84;5080595;28;45490;-75
2023/05/20 03:29:37;;;;;;;;;21.00;19.00;;;;;-149.00;100.00;66333.84;5074383;28;45392;-76
2023/05/20 03:32:03;;;;;;;;;18.67;18.33;;;;;-149.00;100.00;66333.84;5080256;28;46051;-75
2023/05/20 03:34:29;;;;;;;;;18.33;18.33;;;;;-149.00;100.00;66333.84;5080399;28;45220;-75
2023/05/20 03:36:54;;;;;;;;;20.33;19.33;;;;;-149.00;100.00;66333.84;5061780;28;45271;-75
2023/05/20 03:39:20;;;;;;;;;28.00;25.67;;;;;-149.00;100.00;66333.84;5089542;27;45531;-75
2023/05/20 03:41:45;;;;;;;;;24.67;23.00;;;;;-149.00;100.00;66333.84;5100685;27;46088;-76
2023/05/20 03:44:10;;;;;;;;;30.33;27.67;;;;;-149.00;100.00;66333.84;5082045;27;45304;-75
2023/05/20 03:46:36;;;;;;;;;24.00;21.67;;;;;-149.00;100.00;66333.84;5099606;27;48719;-74
2023/05/20 03:49:01;;;;;;;;;24.67;23.00;;;;;-149.00;100.00;66333.84;5100335;27;53866;-76
2023/05/20 03:51:26;;;;;;;;;21.67;20.67;;;;;-149.00;100.00;66333.84;5082055;27;47238;-76
2023/05/20 03:53:52;;;;;;;;;24.67;22.33;;;;;-149.00;100.00;66333.84;5081725;27;45331;-76
2023/05/20 03:56:17;;;;;;;;;24.00;23.33;;;;;-149.00;100.00;66333.84;5082196;27;45333;-75
2023/05/20 03:58:43;;;;;;;;;23.00;21.50;;;;;-149.00;100.00;66333.84;5081932;27;47039;-76
2023/05/20 04:01:12;;;;;;;;;27.00;22.67;;;;;-149.00;100.00;66333.84;5100223;27;45900;-76
2023/05/20 04:03:37;;;;;;;;;28.00;27.00;;;;;-149.00;100.00;66333.84;5081959;27;45311;-75
2023/05/20 04:06:02;;;;;;;;;21.00;21.00;;;;;-149.00;100.00;66333.84;5081980;27;45167;-76
2023/05/20 04:08:28;;;;;;;;;24.67;23.67;;;;;-149.00;100.00;66333.84;5100154;27;45245;-76
2023/05/20 04:10:56;;;;;;;;;26.33;26.33;;;;;-149.00;100.00;66333.84;5100360;27;46512;-76
2023/05/20 04:13:24;;;;;;;;;26.67;24.33;;;;;-149.00;100.00;66333.84;5081930;27;45583;-76
2023/05/20 04:15:50;;;;;;;;;24.00;23.33;;;;;-149.00;100.00;66333.84;5081933;27;45338;-75
2023/05/20 04:18:15;;;;;;;;;26.67;24.33;;;;;-149.00;100.00;66333.84;5081674;27;47018;-75
2023/05/20 04:20:41;;;;;;;;;27.00;25.33;;;;;-149.00;100.00;66333.84;5099820;27;45544;-75
2023/05/20 04:23:06;;;;;;;;;27.00;25.67;;;;;-149.00;100.00;66333.84;5099946;27;45283;-75
2023/05/20 04:25:32;;;;;;;;;26.00;24.00;;;;;-149.00;100.00;66333.84;5081712;27;45223;-75
2023/05/20 04:27:59;;;;;;;;;22.33;21.33;;;;;-149.00;100.00;66333.84;5100062;27;45283;-75
2023/05/20 04:30:24;;;;;;;;;28.33;26.33;;;;;-149.00;100.00;66333.84;5081442;27;47239;-75
2023/05/20 04:32:50;;;;;;;;;24.00;21.67;;;;;-149.00;100.00;66333.84;5081697;27;45719;-75
2023/05/20 04:35:15;;;;;;;;;26.33;25.00;;;;;-149.00;100.00;66333.84;5100144;27;45454;-76
2023/05/20 04:37:43;;;;;;;;;28.00;26.67;;;;;-149.00;100.00;66333.84;5099649;27;45373;-75
2023/05/20 04:40:09;;;;;;;;;31.33;28.33;;;;;-149.00;100.00;66333.84;5064843;28;47449;-75
2023/05/20 04:42:35;;;;;;;;;24.00;24.00;;;;;-149.00;100.00;66333.84;5079389;28;45272;-76
2023/05/20 04:45:04;;;;;;;;;26.33;24.33;;;;;-149.00;100.00;66333.84;5061463;28;45401;-76
2023/05/20 04:47:31;;;;;;;;;28.33;27.33;;;;;-149.00;100.00;66333.84;5079492;28;45178;-75
2023/05/20 04:49:56;;;;;;;;;26.67;24.33;;;;;-149.00;100.00;66333.84;5060973;28;47563;-75
2023/05/20 04:52:22;;;;;;;;;24.33;24.33;;;;;-149.00;100.00;66333.84;5078986;28;45389;-75
2023/05/20 04:54:49;;;;;;;;;26.67;25.67;;;;;-149.00;100.00;66333.84;5079394;28;45272;-75
2023/05/20 04:57:16;;;;;;;;;28.33;27.00;;;;;-149.00;100.00;66333.84;5061273;28;47098;-75
2023/05/20 04:59:42;;;;;;;;;25.67;24.00;;;;;-149.00;100.00;66333.84;5064280;28;47364;-75
2023/05/20 05:02:07;;;;;;;;;27.67;26.33;;;;;-149.00;100.00;66333.84;5082731;28;45161;-75
2023/05/20 05:04:32;;;;;;;;;32.00;29.00;;;;;-149.00;100.00;66333.84;5082802;28;45339;-75
2023/05/20 05:06:58;;;;;;;;;26.00;26.00;;;;;-149.00;100.00;66333.84;5082377;28;45224;-75
2023/05/20 05:09:23;;;;;;;;;24.67;23.67;;;;;-149.00;100.00;66333.84;5064013;28;57607;-75
2023/05/20 05:11:48;;;;;;;;;31.67;30.67;;;;;-149.00;100.00;66333.84;5082273;28;55142;-76
2023/05/20 05:14:14;;;;;;;;;35.00;29.00;;;;;-149.00;100.00;66333.84;5082304;28;51587;-75
2023/05/20 05:16:39;;;;;;;;;33.50;31.50;;;;;-149.00;100.00;66333.84;5082476;28;50940;-74
2023/05/20 05:19:04;;;;;;;;;27.00;26.67;;;;;-149.00;100.00;66333.84;5082275;28;46038;-75
2023/05/20 05:21:30;;;;;;;;;37.67;32.00;;;;;-149.00;100.00;66333.84;5082443;28;45215;-75
2023/05/20 05:23:56;;;;;;;;;26.00;24.33;;;;;-149.00;100.00;66333.84;5082365;28;45287;-74
2023/05/20 05:26:22;;;;;;;;;32.33;29.00;;;;;-149.00;100.00;66333.84;5064091;28;47589;-76
2023/05/20 05:28:47;;;;;;;;;28.67;27.67;;;;;-149.00;100.00;66333.84;5063862;28;47515;-75
2023/05/20 05:31:12;;;;;;;;;28.67;27.33;;;;;-149.00;100.00;66333.84;5082161;28;45345;-75
2023/05/20 05:33:37;;;;;;;;;36.00;32.00;;;;;-149.00;100.00;66333.84;5064267;28;45367;-75
2023/05/20 05:36:05;;;;;;;;;26.00;26.00;;;;;-149.00;100.00;66333.84;5063581;28;45999;-76
2023/05/20 05:38:30;;;;;;;;;30.67;28.00;;;;;-149.00;100.00;66333.84;5084383;27;45901;-76
2023/05/20 05:40:56;;;;;;;;;30.00;29.00;;;;;-149.00;100.00;66333.84;5084011;27;45199;-75
2023/05/20 05:43:21;;;;;;;;;30.00;27.00;;;;;-149.00;100.00;66333.84;5102680;27;45210;-76
2023/05/20 05:45:46;;;;;;;;;26.67;25.33;;;;;-149.00;100.00;66333.84;5102555;27;45220;-76
2023/05/20 05:48:12;;;;;;;;;26.67;26.33;;;;;-149.00;100.00;66333.84;5102398;27;45235;-74
2023/05/20 05:50:37;;;;;;;;;37.33;32.00;;;;;-149.00;100.00;66333.84;5101890;27;54400;-75
2023/05/20 05:53:02;;;;;;;;;33.67;29.33;;;;;-149.00;100.00;66333.84;5083647;27;52444;-76
2023/05/20 05:55:27;;;;;;;;;28.00;26.67;;;;;-149.00;100.00;66333.84;5102504;27;45469;-75
2023/05/20 05:57:53;;;;;;;;;32.67;29.00;;;;;-149.00;100.00;66333.84;5083832;27;47978;-75
2023/05/20 06:00:18;;;;;;;;;29.33;28.33;;;;;-149.00;100.00;66333.84;5083871;27;45236;-75
2023/05/20 06:02:45;;;;;;;;;36.00;30.00;;;;;-149.00;100.00;66333.84;5102424;27;45239;-76
2023/05/20 06:05:10;;;;;;;;;28.00;27.00;;;;;-149.00;100.00;66333.84;5102235;27;45469;-75
2023/05/20 06:07:35;;;;;;;;;31.00;29.00;;;;;-149.00;100.00;66333.84;5101785;27;45335;-76
2023/05/20 06:10:00;;;;;;;;;31.00;29.00;;;;;-149.00;100.00;66333.84;5101259;27;46301;-75
2023/05/20 06:12:26;;;;;;;;;28.33;26.00;;;;;-149.00;100.00;66333.84;5083721;27;45319;-75
2023/05/20 06:14:51;;;;;;;;;39.67;32.00;;;;;-149.00;100.00;66333.84;5083512;27;46604;-75
2023/05/20 06:17:16;;;;;;;;;35.67;30.67;;;;;-149.00;100.00;66333.84;5101740;27;55855;-76
2023/05/20 06:19:42;;;;;;;;;26.67;25.33;;;;;-149.00;100.00;66333.84;5101406;27;57375;-75
2023/05/20 06:22:07;;;;;;;;;29.00;28.67;;;;;-149.00;100.00;66333.84;5101688;27;45411;-76
2023/05/20 06:24:33;;;;;;;;;27.33;27.00;;;;;-149.00;100.00;66333.84;5101923;27;45635;-75
2023/05/20 06:26:58;;;;;;;;;37.00;31.33;;;;;-149.00;100.00;66333.84;5083304;27;47955;-75
2023/05/20 06:29:23;;;;;;;;;31.33;28.33;;;;;-149.00;100.00;66333.84;5101675;27;45368;-76
2023/05/20 06:31:49;;;;;;;;;29.67;29.00;;;;;-149.00;100.00;66333.84;5101596;27;48168;-75
2023/05/20 06:34:14;;;;;;;;;32.67;30.33;;;;;-149.00;100.00;66333.84;5101737;27;45244;-75
2023/05/20 06:36:39;;;;;;;;;31.00;28.33;;;;;-149.00;100.00;66333.84;5101316;27;45467;-75
2023/05/20 06:39:10;;;;;;;;;30.33;29.00;;;;;-149.00;100.00;66333.84;5082942;27;45605;-75
2023/05/20 06:41:35;;;;;;;;;34.00;31.33;;;;;-149.00;100.00;66333.84;5101987;27;45465;-75
2023/05/20 06:44:00;;;;;;;;;31.00;28.00;;;;;-149.00;100.00;66333.84;5082889;27;50316;-75
2023/05/20 06:46:26;;;;;;;;;30.67;29.67;;;;;-149.00;100.00;66333.84;5082766;27;56122;-76
2023/05/20 06:48:51;;;;;;;;;24.67;24.67;;;;;-149.00;100.00;66333.84;5101346;27;50611;-75
2023/05/20 06:51:16;;;;;;;;;29.67;26.67;;;;;-149.00;100.00;66333.84;5083021;27;45253;-76
2023/05/20 06:53:41;;;;;;;;;24.33;22.00;;;;;-149.00;100.00;66333.84;5100843;27;56329;-75
2023/05/20 06:56:07;;;;;;;;;29.00;27.67;;;;;-149.00;100.00;66333.84;5100924;27;58160;-76
2023/05/20 06:58:32;;;;;;;;;34.00;31.00;;;;;-149.00;100.00;66333.84;5100832;27;54130;-75
2023/05/20 07:00:57;;;;;;;;;29.67;29.00;;;;;-149.00;100.00;66333.84;5101335;27;45462;-75
2023/05/20 07:03:23;;;;;;;;;30.00;29.00;;;;;-149.00;100.00;66333.84;5082804;27;46946;-75
2023/05/20 07:05:50;;;;;;;;;33.33;30.00;;;;;-149.00;100.00;66333.84;5082653;27;47018;-75
2023/05/20 07:08:15;;;;;;;;;29.33;28.33;;;;;-149.00;100.00;66333.84;5101074;27;45344;-76
2023/05/20 07:10:40;;;;;;;;;30.67;29.67;;;;;-149.00;100.00;66333.84;5100962;27;45522;-76
2023/05/20 07:13:06;;;;;;;;;30.00;28.67;;;;;-149.00;100.00;66333.84;5101172;27;45696;-76
2023/05/20 07:15:31;;;;;;;;;28.33;25.67;;;;;-149.00;100.00;66333.84;5082205;27;60531;-75
2023/05/20 07:17:56;;;;;;;;;36.00;29.67;;;;;-149.00;100.00;66333.84;5101115;27;45294;-76
2023/05/20 07:20:21;;;;;;;;;29.00;28.00;;;;;-149.00;100.00;66333.84;5100604;27;45285;-76
2023/05/20 07:22:49;;;;;;;;;29.00;28.00;;;;;-149.00;100.00;66333.84;5081495;27;46538;-76
2023/05/20 07:25:14;;;;;;;;;22.67;21.00;;;;;-149.00;100.00;66333.84;5082562;27;47197;-76
2023/05/20 07:27:40;;;;;;;;;33.67;29.33;;;;;-149.00;100.00;66333.84;5082345;27;45166;-76
2023/05/20 07:30:06;;;;;;;;;26.00;26.00;;;;;-149.00;100.00;66333.84;5076678;27;45426;-75
2023/05/20 07:32:31;;;;;;;;;25.67;23.67;;;;;-149.00;100.00;66333.84;5100849;27;45534;-76
2023/05/20 07:34:56;;;;;;;;;29.67;27.33;;;;;-149.00;100.00;66333.84;5100663;27;45309;-75
2023/05/20 07:37:22;;;;;;;;;30.00;28.00;;;;;-149.00;100.00;66333.84;5081840;27;45335;-76
2023/05/20 07:39:47;;;;;;;;;26.00;24.00;;;;;-149.00;100.00;66333.84;5082198;27;45299;-76
2023/05/20 07:42:12;;;;;;;;;29.33;28.00;;;;;-149.00;100.00;66333.84;5100441;27;55459;-76
2023/05/20 07:44:38;;;;;;;;;21.67;21.67;;;;;-149.00;100.00;66333.84;5100478;27;45401;-76
2023/05/20 07:47:03;;;;;;;;;27.67;26.00;;;;;-149.00;100.00;66333.84;5081956;27;53073;-75
2023/05/20 07:49:28;;;;;;;;;27.67;26.67;;;;;-149.00;100.00;66333.84;5082264;27;45318;-76
2023/05/20 07:51:54;;;;;;;;;28.00;27.00;;;;;-149.00;100.00;66333.84;5100197;27;45301;-75
2023/05/20 07:54:19;;;;;;;;;21.00;21.00;;;;;-149.00;100.00;66333.84;5100373;27;54893;-76
2023/05/20 07:56:45;;;;;;;;;32.33;28.67;;;;;-149.00;100.00;66333.84;5081659;27;58184;-75
2023/05/20 07:59:10;;;;;;;;;27.67;25.67;;;;;-149.00;100.00;66333.84;5100446;27;45274;-76
2023/05/20 08:01:35;;;;;;;;;35.00;30.67;;;;;-149.00;100.00;66333.84;5082282;27;45931;-75
2023/05/20 08:04:01;;;;;;;;;27.00;24.67;;;;;-149.00;100.00;66333.84;5100301;27;45232;-76
2023/05/20 08:06:27;;;;;;;;;26.67;26.67;;;;;-149.00;100.00;66333.84;5100266;27;45285;-76
2023/05/20 08:08:53;;;;;;;;;26.33;25.00;;;;;-149.00;100.00;66333.84;5081859;27;45224;-76
2023/05/20 08:11:18;;;;;;;;;25.00;24.67;;;;;-149.00;100.00;66333.84;5081906;27;46502;-75
2023/05/20 08:13:44;;;;;;;;;25.00;25.00;;;;;-149.00;100.00;66333.84;5100260;27;45215;-76
2023/05/20 08:16:09;;;;;;;;;24.67;24.00;;;;;-149.00;100.00;66333.84;5082076;27;45720;-75
2023/05/20 08:18:37;;;;;;;;;26.67;25.67;;;;;-149.00;100.00;66333.84;5100403;27;45241;-75
2023/05/20 08:21:06;;;;;;;;;23.67;22.00;;;;;-149.00;100.00;66333.84;5099971;27;45573;-75
2023/05/20 08:23:32;;;;;;;;;26.67;26.67;;;;;-149.00;100.00;66333.84;5099643;27;45230;-75
2023/05/20 08:26:00;;;;;;;;;26.67;25.67;;;;;-149.00;100.00;66333.84;5100154;27;45197;-76
2023/05/20 08:28:26;;;;;;;;;21.33;21.33;;;;;-149.00;100.00;66333.84;5081762;27;45364;-76
2023/05/20 08:30:52;;;;;;;;;21.00;19.67;;;;;-149.00;100.00;66333.84;5081610;27;46282;-76
2023/05/20 08:33:18;;;;;;;;;22.00;20.00;;;;;-149.00;100.00;66333.84;5101960;27;45360;-75
2023/05/20 08:35:43;;;;;;;;;23.67;23.67;;;;;-149.00;100.00;66333.84;5103521;27;45614;-76
2023/05/20 08:38:09;;;;;;;;;18.00;17.67;;;;;-149.00;100.00;66333.84;5103737;27;45299;-75
2023/05/20 08:40:35;;;;;;;;;17.67;17.00;;;;;-149.00;100.00;66333.84;5064860;28;46925;-76
2023/05/20 08:43:00;;;;;;;;;19.67;19.67;;;;;-149.00;100.00;66333.84;5064809;28;47413;-76
2023/05/20 08:45:27;;;;;;;;;15.33;15.33;;;;;-149.00;100.00;66333.84;5064733;28;45285;-76
2023/05/20 08:47:53;;;;;;;;;19.00;18.33;;;;;-149.00;100.00;66333.84;5083287;28;45231;-76
2023/05/20 08:50:18;;;;;;;;;15.33;14.67;;;;;-149.00;100.00;66333.84;5082807;28;45238;-76
2023/05/20 08:52:45;;;;;;;;;15.00;15.00;;;;;-149.00;100.00;66333.84;5064313;28;48182;-75
2023/05/20 08:55:16;;;;;;;;;14.33;14.33;;;;;-149.00;100.00;66333.84;5082958;28;45395;-76
2023/05/20 08:57:44;;;;;;;;;14.33;13.33;;;;;-149.00;100.00;66333.84;5064455;28;45300;-75
2023/05/20 09:00:12;;;;;;;;;15.67;14.67;;;;;-149.00;100.00;66333.84;5082660;28;45217;-75
2023/05/20 09:02:40;;;;;;;;;18.33;18.00;;;;;-149.00;100.00;66333.84;5064399;28;46323;-76
2023/05/20 09:05:07;;;;;;;;;16.33;14.00;;;;;-149.00;100.00;66333.84;5081617;28;45269;-76
2023/05/20 09:07:32;;;;;;;;;14.67;14.67;;;;;-149.00;100.00;66333.84;5082591;28;45170;-76
2023/05/20 09:09:58;;;;;;;;;13.33;13.00;;;;;-149.00;100.00;66333.84;5082417;28;52303;-76
2023/05/20 09:12:23;;;;;;;;;14.67;14.67;;;;;-149.00;100.00;66333.84;5063965;28;59916;-75
2023/05/20 09:14:49;;;;;;;;;13.67;13.67;;;;;-149.00;100.00;66333.84;5082936;28;45240;-76
2023/05/20 09:17:14;;;;;;;;;15.00;14.00;;;;;-149.00;100.00;66333.84;5064350;28;45259;-76
2023/05/20 09:19:40;;;;;;;;;13.67;12.00;;;;;-149.00;100.00;66333.84;5064125;28;47137;-76
2023/05/20 09:22:06;;;;;;;;;15.67;14.33;;;;;-149.00;100.00;66333.84;5082253;28;45245;-76
2023/05/20 09:24:31;;;;;;;;;13.33;13.33;;;;;-149.00;100.00;66333.84;5082323;28;45445;-76
2023/05/20 09:26:57;;;;;;;;;12.00;12.00;;;;;-149.00;100.00;66333.84;5064179;28;45270;-76
2023/05/20 09:29:23;;;;;;;;;10.00;9.33;;;;;-149.00;100.00;66333.84;5076265;28;45288;-76
2023/05/20 09:31:49;;;;;;;;;11.67;11.67;;;;;-149.00;100.00;66333.84;5063784;28;47953;-75
2023/05/20 09:34:15;;;;;;;;;15.33;13.00;;;;;-149.00;100.00;66333.84;5064028;28;45323;-75
2023/05/20 09:36:43;;;;;;;;;11.33;11.33;;;;;-149.00;100.00;66333.84;5063520;28;45301;-75
2023/05/20 09:39:14;;;;;;;;;11.33;11.33;;;;;-149.00;100.00;66333.84;5090191;27;45226;-75
2023/05/20 09:42:01;;;;;;;;;10.33;10.33;;;;;-149.00;100.00;66333.84;5083922;27;48057;-76
2023/05/20 09:44:28;;;;;;;;;10.33;10.33;;;;;-149.00;100.00;66333.84;5101503;27;45280;-76
2023/05/20 09:46:55;;;;;;;;;13.00;11.33;;;;;-149.00;100.00;66333.84;5084303;27;45368;-75
2023/05/20 09:49:25;;;;;;;;;9.67;9.67;;;;;-149.00;100.00;66333.84;5102437;27;45287;-75
2023/05/20 09:51:52;;;;;;;;;11.67;11.67;;;;;-149.00;100.00;66333.84;5102090;27;45369;-76
2023/05/20 09:54:19;;;;;;;;;13.33;13.33;;;;;-149.00;100.00;66333.84;5102462;27;45456;-75
2023/05/20 09:56:45;;;;;;;;;11.67;11.67;;;;;-149.00;100.00;66333.84;5102527;27;45345;-76
2023/05/20 09:59:15;;;;;;;;;10.33;10.00;;;;;-149.00;100.00;66333.84;5102340;27;45262;-75
2023/05/20 10:01:41;;;;;;;;;11.33;11.33;;;;;-149.00;100.00;66333.84;5102133;27;45761;-75
2023/05/20 10:04:09;;;;;;;;;8.33;8.33;;;;;-149.00;100.00;66333.84;5083862;27;45256;-75
2023/05/20 10:07:07;;;;;;;;;13.67;10.67;;;;;-149.00;100.00;66333.84;5102209;27;45266;-76
2023/05/20 10:09:47;;;;;;;;;12.00;12.00;;;;;-149.00;100.00;66333.84;5102123;27;45425;-76
2023/05/20 10:12:52;;;;;;;;;12.67;12.67;;;;;-149.00;100.00;66333.84;5083574;27;47328;-76
2023/05/20 10:15:40;;;;;;;;;11.67;11.33;;;;;-149.00;100.00;66333.84;5083484;27;45192;-76
2023/05/20 10:18:27;;;;;;;;;13.00;11.00;;;;;-149.00;100.00;66333.84;5083781;27;45235;-75
2023/05/20 10:20:52;;;;;;;;;15.33;13.33;;;;;-149.00;100.00;66333.84;5101714;27;46255;-75
2023/05/20 10:23:29;;;;;;;;;12.67;12.00;;;;;-149.00;100.00;66333.84;5083195;27;47064;-76
2023/05/20 10:25:57;;;;;;;;;13.00;12.00;;;;;-149.00;100.00;66333.84;5101966;27;45321;-76
2023/05/20 10:28:37;;;;;;;;;13.00;12.00;;;;;-149.00;100.00;66333.84;5102011;27;45177;-76
2023/05/20 10:31:15;;;;;;;;;14.00;13.67;;;;;-149.00;100.00;66333.84;5083283;27;46450;-76
2023/05/20 10:33:42;;;;;;;;;17.33;14.67;;;;;-149.00;100.00;66333.84;5083393;27;47467;-75
2023/05/20 10:36:08;;;;;;;;;13.33;12.67;;;;;-149.00;100.00;66333.84;5101508;27;45248;-75
2023/05/20 10:38:33;;;;;;;;;13.00;13.00;;;;;-149.00;100.00;66333.84;5101378;27;45259;-76
2023/05/20 10:41:07;;;;;;;;;11.67;11.67;;;;;-149.00;100.00;66333.84;5101679;27;45455;-76
2023/05/20 10:43:33;;;;;;;;;14.33;14.33;;;;;-149.00;100.00;66333.84;5083202;27;47263;-75
2023/05/20 10:45:58;;;;;;;;;12.67;11.33;;;;;-149.00;100.00;66333.84;5101551;27;45146;-75
2023/05/20 10:48:27;;;;;;;;;16.00;13.33;;;;;-149.00;100.00;66333.84;5101739;27;45746;-75
2023/05/20 10:51:05;;;;;;;;;14.67;13.33;;;;;-149.00;100.00;66333.84;5101397;27;45432;-76